sensor_id;sensor_type;location;lat;lon;timestamp;P1;durP1;ratioP1;P2;durP2;ratioP2
4186;SDS011;2107;52.306;10.484;2023-04-01T00:01:01;0.20;;;0.20;;
4186;SDS011;2107;52.306;10.484;2023-04-01T00:03:30;0.27;;;0.27;;
4186;SDS011;2107;52.306;10.484;2023-04-01T00:05:58;0.20;;;0.20;;
4186;SDS011;2107;52.306;10.484;2023-04-01T00:08:26;0.20;;;0.20;;
4186;SDS011;2107;52.306;10.484;2023-04-01T00:10:53;0.20;;;0.20;;
4186;SDS011;2107;52.306;10.484;2023-04-01T00:13:22;0.20;;;0.20;;
4186;SDS011;2107;52.306;10.484;2023-04-01T00:15:52;0.20;;;0.20;;
4186;SDS011;2107;52.306;10.484;2023-04-01T00:18:19;0.20;;;0.20;;
4186;SDS011;2107;52.306;10.484;2023-04-01T00:20:46;0.20;;;0.20;;
4186;SDS011;2107;52.306;10.484;2023-04-01T00:23:13;0.20;;;0.20;;
4186;SDS011;2107;52.306;10.484;2023-04-01T00:25:41;0.20;;;0.20;;
4186;SDS011;2107;52.306;10.484;2023-04-01T00:28:08;0.20;;;0.20;;
4186;SDS011;2107;52.306;10.484;2023-04-01T00:30:35;0.30;;;0.30;;
4186;SDS011;2107;52.306;10.484;2023-04-01T00:33:04;0.30;;;0.30;;
4186;SDS011;2107;52.306;10.484;2023-04-01T00:35:31;0.30;;;0.30;;
4186;SDS011;2107;52.306;10.484;2023-04-01T00:37:58;0.30;;;0.30;;
4186;SDS011;2107;52.306;10.484;2023-04-01T00:40:26;0.40;;;0.40;;
4186;SDS011;2107;52.306;10.484;2023-04-01T00:42:54;0.40;;;0.40;;
4186;SDS011;2107;52.306;10.484;2023-04-01T00:45:26;0.30;;;0.30;;
4186;SDS011;2107;52.306;10.484;2023-04-01T00:47:55;0.60;;;0.60;;
4186;SDS011;2107;52.306;10.484;2023-04-01T00:50:27;0.83;;;0.83;;
4186;SDS011;2107;52.306;10.484;2023-04-01T00:52:57;0.67;;;0.67;;
4186;SDS011;2107;52.306;10.484;2023-04-01T00:55:25;0.60;;;0.60;;
4186;SDS011;2107;52.306;10.484;2023-04-01T00:57:54;0.70;;;0.70;;
4186;SDS011;2107;52.306;10.484;2023-04-01T01:00:24;0.80;;;0.80;;
4186;SDS011;2107;52.306;10.484;2023-04-01T01:02:51;0.80;;;0.80;;
4186;SDS011;2107;52.306;10.484;2023-04-01T01:05:19;1.10;;;1.10;;
4186;SDS011;2107;52.306;10.484;2023-04-01T01:07:56;0.90;;;0.90;;
4186;SDS011;2107;52.306;10.484;2023-04-01T01:10:30;1.00;;;1.00;;
4186;SDS011;2107;52.306;10.484;2023-04-01T01:13:01;0.60;;;0.60;;
4186;SDS011;2107;52.306;10.484;2023-04-01T01:15:35;1.00;;;1.00;;
4186;SDS011;2107;52.306;10.484;2023-04-01T01:18:09;0.90;;;0.90;;
4186;SDS011;2107;52.306;10.484;2023-04-01T01:24:08;0.90;;;0.90;;
4186;SDS011;2107;52.306;10.484;2023-04-01T01:26:56;0.73;;;0.73;;
4186;SDS011;2107;52.306;10.484;2023-04-01T01:29:39;0.60;;;0.60;;
4186;SDS011;2107;52.306;10.484;2023-04-01T01:32:28;0.80;;;0.80;;
4186;SDS011;2107;52.306;10.484;2023-04-01T01:35:21;0.80;;;0.80;;
4186;SDS011;2107;52.306;10.484;2023-04-01T01:37:53;0.90;;;0.90;;
4186;SDS011;2107;52.306;10.484;2023-04-01T01:40:22;0.73;;;0.73;;
4186;SDS011;2107;52.306;10.484;2023-04-01T01:42:53;0.50;;;0.50;;
4186;SDS011;2107;52.306;10.484;2023-04-01T01:45:23;0.50;;;0.50;;
4186;SDS011;2107;52.306;10.484;2023-04-01T01:47:52;0.53;;;0.53;;
4186;SDS011;2107;52.306;10.484;2023-04-01T01:50:22;0.50;;;0.50;;
4186;SDS011;2107;52.306;10.484;2023-04-01T01:53:00;0.40;;;0.40;;
4186;SDS011;2107;52.306;10.484;2023-04-01T01:55:29;0.40;;;0.40;;
4186;SDS011;2107;52.306;10.484;2023-04-01T01:57:58;0.30;;;0.30;;
4186;SDS011;2107;52.306;10.484;2023-04-01T02:00:28;0.40;;;0.40;;
4186;SDS011;2107;52.306;10.484;2023-04-01T02:02:55;0.40;;;0.40;;
4186;SDS011;2107;52.306;10.484;2023-04-01T02:05:26;0.30;;;0.30;;
4186;SDS011;2107;52.306;10.484;2023-04-01T02:07:56;0.30;;;0.30;;
4186;SDS011;2107;52.306;10.484;2023-04-01T02:10:27;0.30;;;0.30;;
4186;SDS011;2107;52.306;10.484;2023-04-01T02:12:57;0.30;;;0.30;;
4186;SDS011;2107;52.306;10.484;2023-04-01T02:15:29;0.20;;;0.20;;
4186;SDS011;2107;52.306;10.484;2023-04-01T02:17:58;0.30;;;0.30;;
4186;SDS011;2107;52.306;10.484;2023-04-01T02:20:27;0.20;;;0.20;;
4186;SDS011;2107;52.306;10.484;2023-04-01T02:22:56;0.20;;;0.20;;
4186;SDS011;2107;52.306;10.484;2023-04-01T02:25:25;0.20;;;0.20;;
4186;SDS011;2107;52.306;10.484;2023-04-01T02:27:54;0.20;;;0.20;;
4186;SDS011;2107;52.306;10.484;2023-04-01T02:30:24;0.20;;;0.20;;
4186;SDS011;2107;52.306;10.484;2023-04-01T02:32:52;0.20;;;0.20;;
4186;SDS011;2107;52.306;10.484;2023-04-01T02:35:21;0.20;;;0.20;;
4186;SDS011;2107;52.306;10.484;2023-04-01T02:37:50;0.20;;;0.20;;
4186;SDS011;2107;52.306;10.484;2023-04-01T02:40:19;0.20;;;0.20;;
4186;SDS011;2107;52.306;10.484;2023-04-01T02:42:46;0.20;;;0.20;;
4186;SDS011;2107;52.306;10.484;2023-04-01T02:45:13;0.20;;;0.20;;
4186;SDS011;2107;52.306;10.484;2023-04-01T02:47:41;0.10;;;0.10;;
4186;SDS011;2107;52.306;10.484;2023-04-01T02:50:08;0.20;;;0.20;;
4186;SDS011;2107;52.306;10.484;2023-04-01T02:52:36;0.10;;;0.10;;
4186;SDS011;2107;52.306;10.484;2023-04-01T02:55:05;0.10;;;0.10;;
4186;SDS011;2107;52.306;10.484;2023-04-01T02:57:32;0.10;;;0.10;;
4186;SDS011;2107;52.306;10.484;2023-04-01T02:59:59;0.10;;;0.10;;
4186;SDS011;2107;52.306;10.484;2023-04-01T03:02:26;0.10;;;0.10;;
4186;SDS011;2107;52.306;10.484;2023-04-01T03:04:53;0.10;;;0.10;;
4186;SDS011;2107;52.306;10.484;2023-04-01T03:07:19;0.10;;;0.10;;
4186;SDS011;2107;52.306;10.484;2023-04-01T03:09:46;0.10;;;0.10;;
4186;SDS011;2107;52.306;10.484;2023-04-01T03:12:14;0.10;;;0.10;;
4186;SDS011;2107;52.306;10.484;2023-04-01T03:14:41;0.10;;;0.10;;
4186;SDS011;2107;52.306;10.484;2023-04-01T03:17:08;0.10;;;0.10;;
4186;SDS011;2107;52.306;10.484;2023-04-01T03:19:35;0.10;;;0.10;;
4186;SDS011;2107;52.306;10.484;2023-04-01T03:22:02;0.10;;;0.10;;
4186;SDS011;2107;52.306;10.484;2023-04-01T03:24:28;0.10;;;0.10;;
4186;SDS011;2107;52.306;10.484;2023-04-01T03:26:55;0.10;;;0.10;;
4186;SDS011;2107;52.306;10.484;2023-04-01T03:29:23;0.10;;;0.10;;
4186;SDS011;2107;52.306;10.484;2023-04-01T03:31:50;0.10;;;0.10;;
4186;SDS011;2107;52.306;10.484;2023-04-01T03:34:17;0.10;;;0.10;;
4186;SDS011;2107;52.306;10.484;2023-04-01T03:36:44;0.10;;;0.10;;
4186;SDS011;2107;52.306;10.484;2023-04-01T03:39:11;0.10;;;0.10;;
4186;SDS011;2107;52.306;10.484;2023-04-01T03:41:38;0.10;;;0.10;;
4186;SDS011;2107;52.306;10.484;2023-04-01T03:44:04;0.10;;;0.10;;
4186;SDS011;2107;52.306;10.484;2023-04-01T03:46:33;0.10;;;0.10;;
4186;SDS011;2107;52.306;10.484;2023-04-01T03:49:00;0.10;;;0.10;;
4186;SDS011;2107;52.306;10.484;2023-04-01T03:51:27;0.00;;;0.00;;
4186;SDS011;2107;52.306;10.484;2023-04-01T03:53:54;0.00;;;0.00;;
4186;SDS011;2107;52.306;10.484;2023-04-01T03:56:21;0.10;;;0.10;;
4186;SDS011;2107;52.306;10.484;2023-04-01T03:58:48;0.00;;;0.00;;
4186;SDS011;2107;52.306;10.484;2023-04-01T04:01:16;0.10;;;0.10;;
4186;SDS011;2107;52.306;10.484;2023-04-01T04:03:47;0.10;;;0.10;;
4186;SDS011;2107;52.306;10.484;2023-04-01T04:06:14;0.00;;;0.00;;
4186;SDS011;2107;52.306;10.484;2023-04-01T04:08:43;0.10;;;0.10;;
4186;SDS011;2107;52.306;10.484;2023-04-01T04:11:10;0.10;;;0.10;;
4186;SDS011;2107;52.306;10.484;2023-04-01T04:13:37;0.00;;;0.00;;
4186;SDS011;2107;52.306;10.484;2023-04-01T04:16:04;0.00;;;0.00;;
4186;SDS011;2107;52.306;10.484;2023-04-01T04:18:31;0.10;;;0.10;;
4186;SDS011;2107;52.306;10.484;2023-04-01T04:20:59;0.10;;;0.10;;
4186;SDS011;2107;52.306;10.484;2023-04-01T04:23:26;0.10;;;0.10;;
4186;SDS011;2107;52.306;10.484;2023-04-01T04:25:55;0.00;;;0.00;;
4186;SDS011;2107;52.306;10.484;2023-04-01T04:28:23;0.00;;;0.00;;
4186;SDS011;2107;52.306;10.484;2023-04-01T04:30:51;0.10;;;0.10;;
4186;SDS011;2107;52.306;10.484;2023-04-01T04:33:18;0.10;;;0.10;;
4186;SDS011;2107;52.306;10.484;2023-04-01T04:35:45;0.00;;;0.00;;
4186;SDS011;2107;52.306;10.484;2023-04-01T04:38:13;0.07;;;0.07;;
4186;SDS011;2107;52.306;10.484;2023-04-01T04:40:40;0.10;;;0.10;;
4186;SDS011;2107;52.306;10.484;2023-04-01T04:43:09;0.10;;;0.10;;
4186;SDS011;2107;52.306;10.484;2023-04-01T04:45:37;0.10;;;0.10;;
4186;SDS011;2107;52.306;10.484;2023-04-01T04:48:04;0.10;;;0.10;;
4186;SDS011;2107;52.306;10.484;2023-04-01T04:50:32;0.00;;;0.00;;
4186;SDS011;2107;52.306;10.484;2023-04-01T04:52:59;0.00;;;0.00;;
4186;SDS011;2107;52.306;10.484;2023-04-01T04:55:27;0.00;;;0.00;;
4186;SDS011;2107;52.306;10.484;2023-04-01T04:57:54;0.00;;;0.00;;
4186;SDS011;2107;52.306;10.484;2023-04-01T05:00:21;0.00;;;0.00;;
4186;SDS011;2107;52.306;10.484;2023-04-01T05:02:48;0.00;;;0.00;;
4186;SDS011;2107;52.306;10.484;2023-04-01T05:05:15;0.00;;;0.00;;
4186;SDS011;2107;52.306;10.484;2023-04-01T05:07:42;0.00;;;0.00;;
4186;SDS011;2107;52.306;10.484;2023-04-01T05:10:09;0.00;;;0.00;;
4186;SDS011;2107;52.306;10.484;2023-04-01T05:12:37;0.00;;;0.00;;
4186;SDS011;2107;52.306;10.484;2023-04-01T05:15:04;0.00;;;0.00;;
4186;SDS011;2107;52.306;10.484;2023-04-01T05:17:32;0.00;;;0.00;;
4186;SDS011;2107;52.306;10.484;2023-04-01T05:19:59;0.00;;;0.00;;
4186;SDS011;2107;52.306;10.484;2023-04-01T05:22:25;0.00;;;0.00;;
4186;SDS011;2107;52.306;10.484;2023-04-01T05:24:52;0.00;;;0.00;;
4186;SDS011;2107;52.306;10.484;2023-04-01T05:27:19;0.00;;;0.00;;
4186;SDS011;2107;52.306;10.484;2023-04-01T05:29:47;0.00;;;0.00;;
4186;SDS011;2107;52.306;10.484;2023-04-01T05:32:14;0.00;;;0.00;;
4186;SDS011;2107;52.306;10.484;2023-04-01T05:34:41;0.00;;;0.00;;
4186;SDS011;2107;52.306;10.484;2023-04-01T05:37:08;0.00;;;0.00;;
4186;SDS011;2107;52.306;10.484;2023-04-01T05:39:35;0.10;;;0.10;;
4186;SDS011;2107;52.306;10.484;2023-04-01T05:42:05;0.00;;;0.00;;
4186;SDS011;2107;52.306;10.484;2023-04-01T05:44:32;0.00;;;0.00;;
4186;SDS011;2107;52.306;10.484;2023-04-01T05:47:00;0.10;;;0.10;;
4186;SDS011;2107;52.306;10.484;2023-04-01T05:49:27;0.10;;;0.10;;
4186;SDS011;2107;52.306;10.484;2023-04-01T05:51:54;0.10;;;0.10;;
4186;SDS011;2107;52.306;10.484;2023-04-01T05:54:21;0.10;;;0.10;;
4186;SDS011;2107;52.306;10.484;2023-04-01T05:56:48;0.10;;;0.10;;
4186;SDS011;2107;52.306;10.484;2023-04-01T05:59:15;0.10;;;0.10;;
4186;SDS011;2107;52.306;10.484;2023-04-01T06:01:42;0.10;;;0.10;;
4186;SDS011;2107;52.306;10.484;2023-04-01T06:04:12;0.10;;;0.10;;
4186;SDS011;2107;52.306;10.484;2023-04-01T06:06:41;0.10;;;0.10;;
4186;SDS011;2107;52.306;10.484;2023-04-01T06:09:12;0.10;;;0.10;;
4186;SDS011;2107;52.306;10.484;2023-04-01T06:11:43;0.10;;;0.10;;
4186;SDS011;2107;52.306;10.484;2023-04-01T06:14:28;0.20;;;0.20;;
4186;SDS011;2107;52.306;10.484;2023-04-01T06:17:07;0.10;;;0.10;;
4186;SDS011;2107;52.306;10.484;2023-04-01T06:19:50;0.10;;;0.10;;
4186;SDS011;2107;52.306;10.484;2023-04-01T06:22:32;0.10;;;0.10;;
4186;SDS011;2107;52.306;10.484;2023-04-01T06:28:09;0.10;;;0.10;;
4186;SDS011;2107;52.306;10.484;2023-04-01T06:31:15;0.10;;;0.10;;
4186;SDS011;2107;52.306;10.484;2023-04-01T06:34:01;0.10;;;0.10;;
4186;SDS011;2107;52.306;10.484;2023-04-01T06:36:59;0.10;;;0.10;;
4186;SDS011;2107;52.306;10.484;2023-04-01T06:39:52;0.10;;;0.10;;
4186;SDS011;2107;52.306;10.484;2023-04-01T06:42:32;0.10;;;0.10;;
4186;SDS011;2107;52.306;10.484;2023-04-01T06:45:11;0.10;;;0.10;;
4186;SDS011;2107;52.306;10.484;2023-04-01T06:47:55;0.10;;;0.10;;
4186;SDS011;2107;52.306;10.484;2023-04-01T06:50:34;0.10;;;0.10;;
4186;SDS011;2107;52.306;10.484;2023-04-01T06:53:10;0.20;;;0.20;;
4186;SDS011;2107;52.306;10.484;2023-04-01T06:55:44;0.10;;;0.10;;
4186;SDS011;2107;52.306;10.484;2023-04-01T06:58:21;0.10;;;0.10;;
4186;SDS011;2107;52.306;10.484;2023-04-01T07:01:02;0.20;;;0.20;;
4186;SDS011;2107;52.306;10.484;2023-04-01T07:03:36;0.20;;;0.20;;
4186;SDS011;2107;52.306;10.484;2023-04-01T07:06:19;0.20;;;0.20;;
4186;SDS011;2107;52.306;10.484;2023-04-01T07:08:55;0.30;;;0.30;;
4186;SDS011;2107;52.306;10.484;2023-04-01T07:11:33;0.30;;;0.30;;
4186;SDS011;2107;52.306;10.484;2023-04-01T07:14:13;0.20;;;0.20;;
4186;SDS011;2107;52.306;10.484;2023-04-01T07:16:49;0.30;;;0.30;;
4186;SDS011;2107;52.306;10.484;2023-04-01T07:19:25;0.30;;;0.30;;
4186;SDS011;2107;52.306;10.484;2023-04-01T07:22:04;0.30;;;0.30;;
4186;SDS011;2107;52.306;10.484;2023-04-01T07:24:49;0.30;;;0.30;;
4186;SDS011;2107;52.306;10.484;2023-04-01T07:27:25;0.30;;;0.30;;
4186;SDS011;2107;52.306;10.484;2023-04-01T07:29:52;0.30;;;0.30;;
4186;SDS011;2107;52.306;10.484;2023-04-01T07:32:24;0.33;;;0.33;;
4186;SDS011;2107;52.306;10.484;2023-04-01T07:35:05;0.30;;;0.30;;
4186;SDS011;2107;52.306;10.484;2023-04-01T07:37:39;0.40;;;0.40;;
4186;SDS011;2107;52.306;10.484;2023-04-01T07:40:17;0.40;;;0.40;;
4186;SDS011;2107;52.306;10.484;2023-04-01T07:42:56;0.60;;;0.60;;
4186;SDS011;2107;52.306;10.484;2023-04-01T07:45:35;0.50;;;0.50;;
4186;SDS011;2107;52.306;10.484;2023-04-01T07:48:10;0.73;;;0.73;;
4186;SDS011;2107;52.306;10.484;2023-04-01T07:50:50;0.57;;;0.57;;
4186;SDS011;2107;52.306;10.484;2023-04-01T07:53:24;0.70;;;0.70;;
4186;SDS011;2107;52.306;10.484;2023-04-01T07:55:59;0.80;;;0.80;;
4186;SDS011;2107;52.306;10.484;2023-04-01T07:58:33;1.00;;;1.00;;
4186;SDS011;2107;52.306;10.484;2023-04-01T08:01:10;0.80;;;0.80;;
4186;SDS011;2107;52.306;10.484;2023-04-01T08:03:47;1.00;;;1.00;;
4186;SDS011;2107;52.306;10.484;2023-04-01T08:06:27;0.90;;;0.90;;
4186;SDS011;2107;52.306;10.484;2023-04-01T08:08:59;0.90;;;0.90;;
4186;SDS011;2107;52.306;10.484;2023-04-01T08:11:39;0.90;;;0.90;;
4186;SDS011;2107;52.306;10.484;2023-04-01T08:14:14;1.00;;;1.00;;
4186;SDS011;2107;52.306;10.484;2023-04-01T08:16:49;0.90;;;0.90;;
4186;SDS011;2107;52.306;10.484;2023-04-01T08:19:27;0.70;;;0.70;;
4186;SDS011;2107;52.306;10.484;2023-04-01T08:22:02;0.70;;;0.70;;
4186;SDS011;2107;52.306;10.484;2023-04-01T08:24:37;0.70;;;0.70;;
4186;SDS011;2107;52.306;10.484;2023-04-01T08:27:11;0.80;;;0.80;;
4186;SDS011;2107;52.306;10.484;2023-04-01T08:29:46;0.87;;;0.87;;
4186;SDS011;2107;52.306;10.484;2023-04-01T08:32:18;1.00;;;1.00;;
4186;SDS011;2107;52.306;10.484;2023-04-01T08:34:50;1.10;;;1.10;;
4186;SDS011;2107;52.306;10.484;2023-04-01T08:37:24;1.10;;;1.10;;
4186;SDS011;2107;52.306;10.484;2023-04-01T08:39:55;0.73;;;0.73;;
4186;SDS011;2107;52.306;10.484;2023-04-01T08:45:21;0.70;;;0.70;;
4186;SDS011;2107;52.306;10.484;2023-04-01T08:51:07;0.60;;;0.60;;
4186;SDS011;2107;52.306;10.484;2023-04-01T08:54:07;0.40;;;0.40;;
4186;SDS011;2107;52.306;10.484;2023-04-01T08:56:47;0.30;;;0.30;;
4186;SDS011;2107;52.306;10.484;2023-04-01T09:02:20;0.30;;;0.30;;
4186;SDS011;2107;52.306;10.484;2023-04-01T09:08:00;0.40;;;0.40;;
4186;SDS011;2107;52.306;10.484;2023-04-01T09:10:49;0.37;;;0.37;;
4186;SDS011;2107;52.306;10.484;2023-04-01T09:13:35;0.40;;;0.40;;
4186;SDS011;2107;52.306;10.484;2023-04-01T09:16:15;0.40;;;0.40;;
4186;SDS011;2107;52.306;10.484;2023-04-01T09:19:05;0.30;;;0.30;;
4186;SDS011;2107;52.306;10.484;2023-04-01T09:21:46;0.50;;;0.50;;
4186;SDS011;2107;52.306;10.484;2023-04-01T09:24:43;0.40;;;0.40;;
4186;SDS011;2107;52.306;10.484;2023-04-01T09:27:29;0.40;;;0.40;;
4186;SDS011;2107;52.306;10.484;2023-04-01T09:30:18;0.30;;;0.30;;
4186;SDS011;2107;52.306;10.484;2023-04-01T09:36:01;0.30;;;0.30;;
4186;SDS011;2107;52.306;10.484;2023-04-01T09:38:33;0.40;;;0.40;;
4186;SDS011;2107;52.306;10.484;2023-04-01T09:41:11;0.50;;;0.50;;
4186;SDS011;2107;52.306;10.484;2023-04-01T09:43:51;0.50;;;0.50;;
4186;SDS011;2107;52.306;10.484;2023-04-01T09:46:30;0.40;;;0.40;;
4186;SDS011;2107;52.306;10.484;2023-04-01T09:52:23;0.40;;;0.40;;
4186;SDS011;2107;52.306;10.484;2023-04-01T09:54:59;0.40;;;0.40;;
4186;SDS011;2107;52.306;10.484;2023-04-01T09:58:00;0.40;;;0.40;;
4186;SDS011;2107;52.306;10.484;2023-04-01T10:03:50;0.30;;;0.30;;
4186;SDS011;2107;52.306;10.484;2023-04-01T10:06:52;0.40;;;0.40;;
4186;SDS011;2107;52.306;10.484;2023-04-01T10:09:48;0.40;;;0.40;;
4186;SDS011;2107;52.306;10.484;2023-04-01T10:15:49;0.70;;;0.70;;
4186;SDS011;2107;52.306;10.484;2023-04-01T10:21:57;0.90;;;0.90;;
4186;SDS011;2107;52.306;10.484;2023-04-01T10:27:49;0.60;;;0.60;;
4186;SDS011;2107;52.306;10.484;2023-04-01T10:36:52;0.60;;;0.60;;
4186;SDS011;2107;52.306;10.484;2023-04-01T10:39:32;0.30;;;0.30;;
4186;SDS011;2107;52.306;10.484;2023-04-01T10:48:15;0.20;;;0.20;;
4186;SDS011;2107;52.306;10.484;2023-04-01T10:53:59;0.10;;;0.10;;
4186;SDS011;2107;52.306;10.484;2023-04-01T10:56:48;0.20;;;0.20;;
4186;SDS011;2107;52.306;10.484;2023-04-01T11:27:11;0.27;;;0.27;;
4186;SDS011;2107;52.306;10.484;2023-04-01T11:30:01;0.20;;;0.20;;
4186;SDS011;2107;52.306;10.484;2023-04-01T11:32:46;0.20;;;0.20;;
4186;SDS011;2107;52.306;10.484;2023-04-01T11:35:25;0.30;;;0.30;;
4186;SDS011;2107;52.306;10.484;2023-04-01T11:38:09;0.20;;;0.20;;
4186;SDS011;2107;52.306;10.484;2023-04-01T11:40:51;0.30;;;0.30;;
4186;SDS011;2107;52.306;10.484;2023-04-01T11:43:25;0.20;;;0.20;;
4186;SDS011;2107;52.306;10.484;2023-04-01T11:45:58;0.20;;;0.20;;
4186;SDS011;2107;52.306;10.484;2023-04-01T11:48:40;0.20;;;0.20;;
4186;SDS011;2107;52.306;10.484;2023-04-01T11:54:14;0.30;;;0.30;;
4186;SDS011;2107;52.306;10.484;2023-04-01T11:56:58;0.30;;;0.30;;
4186;SDS011;2107;52.306;10.484;2023-04-01T11:59:41;0.40;;;0.40;;
4186;SDS011;2107;52.306;10.484;2023-04-01T12:02:17;0.40;;;0.40;;
4186;SDS011;2107;52.306;10.484;2023-04-01T12:04:54;0.60;;;0.60;;
4186;SDS011;2107;52.306;10.484;2023-04-01T12:07:53;0.60;;;0.60;;
4186;SDS011;2107;52.306;10.484;2023-04-01T12:10:31;0.50;;;0.50;;
4186;SDS011;2107;52.306;10.484;2023-04-01T12:13:04;0.80;;;0.80;;
4186;SDS011;2107;52.306;10.484;2023-04-01T12:15:48;1.00;;;1.00;;
4186;SDS011;2107;52.306;10.484;2023-04-01T12:18:26;2.20;;;2.20;;
4186;SDS011;2107;52.306;10.484;2023-04-01T12:21:00;2.00;;;2.00;;
4186;SDS011;2107;52.306;10.484;2023-04-01T12:23:41;2.50;;;2.50;;
4186;SDS011;2107;52.306;10.484;2023-04-01T12:29:18;2.13;;;2.13;;
4186;SDS011;2107;52.306;10.484;2023-04-01T12:32:04;2.00;;;2.00;;
4186;SDS011;2107;52.306;10.484;2023-04-01T12:34:44;1.90;;;1.90;;
4186;SDS011;2107;52.306;10.484;2023-04-01T12:37:32;1.80;;;1.80;;
4186;SDS011;2107;52.306;10.484;2023-04-01T12:40:13;1.90;;;1.90;;
4186;SDS011;2107;52.306;10.484;2023-04-01T12:43:05;2.00;;;2.00;;
4186;SDS011;2107;52.306;10.484;2023-04-01T12:45:44;1.80;;;1.80;;
4186;SDS011;2107;52.306;10.484;2023-04-01T12:48:27;1.50;;;1.50;;
4186;SDS011;2107;52.306;10.484;2023-04-01T12:51:29;1.60;;;1.60;;
4186;SDS011;2107;52.306;10.484;2023-04-01T12:54:42;1.47;;;1.47;;
4186;SDS011;2107;52.306;10.484;2023-04-01T12:57:31;1.30;;;1.30;;
4186;SDS011;2107;52.306;10.484;2023-04-01T13:00:35;1.80;;;1.80;;
4186;SDS011;2107;52.306;10.484;2023-04-01T13:03:17;1.70;;;1.70;;
4186;SDS011;2107;52.306;10.484;2023-04-01T13:09:01;1.40;;;1.40;;
4186;SDS011;2107;52.306;10.484;2023-04-01T13:11:36;1.20;;;1.20;;
4186;SDS011;2107;52.306;10.484;2023-04-01T13:14:23;0.93;;;0.93;;
4186;SDS011;2107;52.306;10.484;2023-04-01T13:17:13;0.77;;;0.77;;
4186;SDS011;2107;52.306;10.484;2023-04-01T13:19:47;0.77;;;0.77;;
4186;SDS011;2107;52.306;10.484;2023-04-01T13:22:19;0.70;;;0.70;;
4186;SDS011;2107;52.306;10.484;2023-04-01T13:24:54;0.50;;;0.50;;
4186;SDS011;2107;52.306;10.484;2023-04-01T13:27:29;0.50;;;0.50;;
4186;SDS011;2107;52.306;10.484;2023-04-01T13:30:10;0.70;;;0.70;;
4186;SDS011;2107;52.306;10.484;2023-04-01T13:32:50;0.60;;;0.60;;
4186;SDS011;2107;52.306;10.484;2023-04-01T13:35:29;0.70;;;0.70;;
4186;SDS011;2107;52.306;10.484;2023-04-01T13:38:14;0.73;;;0.73;;
4186;SDS011;2107;52.306;10.484;2023-04-01T13:40:58;0.40;;;0.40;;
4186;SDS011;2107;52.306;10.484;2023-04-01T13:43:34;0.40;;;0.40;;
4186;SDS011;2107;52.306;10.484;2023-04-01T13:46:08;0.20;;;0.20;;
4186;SDS011;2107;52.306;10.484;2023-04-01T13:52:04;0.10;;;0.10;;
4186;SDS011;2107;52.306;10.484;2023-04-01T13:55:03;0.10;;;0.10;;
4186;SDS011;2107;52.306;10.484;2023-04-01T13:57:51;0.10;;;0.10;;
4186;SDS011;2107;52.306;10.484;2023-04-01T14:00:38;0.10;;;0.10;;
4186;SDS011;2107;52.306;10.484;2023-04-01T14:06:06;0.10;;;0.10;;
4186;SDS011;2107;52.306;10.484;2023-04-01T14:08:51;0.10;;;0.10;;
4186;SDS011;2107;52.306;10.484;2023-04-01T14:11:31;0.00;;;0.00;;
4186;SDS011;2107;52.306;10.484;2023-04-01T14:14:08;0.00;;;0.00;;
4186;SDS011;2107;52.306;10.484;2023-04-01T14:16:54;0.10;;;0.10;;
4186;SDS011;2107;52.306;10.484;2023-04-01T14:22:33;0.10;;;0.10;;
4186;SDS011;2107;52.306;10.484;2023-04-01T14:28:13;0.10;;;0.10;;
4186;SDS011;2107;52.306;10.484;2023-04-01T14:30:52;0.10;;;0.10;;
4186;SDS011;2107;52.306;10.484;2023-04-01T14:33:41;0.10;;;0.10;;
4186;SDS011;2107;52.306;10.484;2023-04-01T14:36:29;0.10;;;0.10;;
4186;SDS011;2107;52.306;10.484;2023-04-01T14:39:15;0.10;;;0.10;;
4186;SDS011;2107;52.306;10.484;2023-04-01T14:42:00;0.10;;;0.10;;
4186;SDS011;2107;52.306;10.484;2023-04-01T14:44:49;0.10;;;0.10;;
4186;SDS011;2107;52.306;10.484;2023-04-01T14:47:28;0.10;;;0.10;;
4186;SDS011;2107;52.306;10.484;2023-04-01T14:50:09;0.10;;;0.10;;
4186;SDS011;2107;52.306;10.484;2023-04-01T14:52:41;0.10;;;0.10;;
4186;SDS011;2107;52.306;10.484;2023-04-01T14:55:20;0.00;;;0.00;;
4186;SDS011;2107;52.306;10.484;2023-04-01T14:58:04;0.00;;;0.00;;
4186;SDS011;2107;52.306;10.484;2023-04-01T15:00:41;0.00;;;0.00;;
4186;SDS011;2107;52.306;10.484;2023-04-01T15:03:26;0.00;;;0.00;;
4186;SDS011;2107;52.306;10.484;2023-04-01T15:06:01;0.00;;;0.00;;
4186;SDS011;2107;52.306;10.484;2023-04-01T15:08:47;0.00;;;0.00;;
4186;SDS011;2107;52.306;10.484;2023-04-01T15:11:21;0.00;;;0.00;;
4186;SDS011;2107;52.306;10.484;2023-04-01T15:14:12;0.00;;;0.00;;
4186;SDS011;2107;52.306;10.484;2023-04-01T15:16:55;0.00;;;0.00;;
4186;SDS011;2107;52.306;10.484;2023-04-01T15:19:38;0.00;;;0.00;;
4186;SDS011;2107;52.306;10.484;2023-04-01T15:22:28;0.00;;;0.00;;
4186;SDS011;2107;52.306;10.484;2023-04-01T15:25:10;0.00;;;0.00;;
4186;SDS011;2107;52.306;10.484;2023-04-01T15:27:50;0.10;;;0.10;;
4186;SDS011;2107;52.306;10.484;2023-04-01T15:30:32;0.00;;;0.00;;
4186;SDS011;2107;52.306;10.484;2023-04-01T15:33:13;0.00;;;0.00;;
4186;SDS011;2107;52.306;10.484;2023-04-01T15:36:08;0.00;;;0.00;;
4186;SDS011;2107;52.306;10.484;2023-04-01T15:38:43;0.00;;;0.00;;
4186;SDS011;2107;52.306;10.484;2023-04-01T15:41:16;0.00;;;0.00;;
4186;SDS011;2107;52.306;10.484;2023-04-01T15:43:49;0.00;;;0.00;;
4186;SDS011;2107;52.306;10.484;2023-04-01T15:46:26;0.00;;;0.00;;
4186;SDS011;2107;52.306;10.484;2023-04-01T15:49:15;0.00;;;0.00;;
4186;SDS011;2107;52.306;10.484;2023-04-01T15:52:05;0.00;;;0.00;;
4186;SDS011;2107;52.306;10.484;2023-04-01T15:54:52;0.00;;;0.00;;
4186;SDS011;2107;52.306;10.484;2023-04-01T15:57:40;0.00;;;0.00;;
4186;SDS011;2107;52.306;10.484;2023-04-01T16:00:21;0.00;;;0.00;;
4186;SDS011;2107;52.306;10.484;2023-04-01T16:02:55;0.10;;;0.10;;
4186;SDS011;2107;52.306;10.484;2023-04-01T16:05:42;0.10;;;0.10;;
4186;SDS011;2107;52.306;10.484;2023-04-01T16:08:19;0.00;;;0.00;;
4186;SDS011;2107;52.306;10.484;2023-04-01T16:11:09;0.00;;;0.00;;
4186;SDS011;2107;52.306;10.484;2023-04-01T16:13:46;0.00;;;0.00;;
4186;SDS011;2107;52.306;10.484;2023-04-01T16:16:24;0.00;;;0.00;;
4186;SDS011;2107;52.306;10.484;2023-04-01T16:19:03;0.00;;;0.00;;
4186;SDS011;2107;52.306;10.484;2023-04-01T16:21:43;0.00;;;0.00;;
4186;SDS011;2107;52.306;10.484;2023-04-01T16:24:16;0.00;;;0.00;;
4186;SDS011;2107;52.306;10.484;2023-04-01T16:26:50;0.10;;;0.10;;
4186;SDS011;2107;52.306;10.484;2023-04-01T16:29:24;0.00;;;0.00;;
4186;SDS011;2107;52.306;10.484;2023-04-01T16:31:55;0.00;;;0.00;;
4186;SDS011;2107;52.306;10.484;2023-04-01T16:34:41;0.00;;;0.00;;
4186;SDS011;2107;52.306;10.484;2023-04-01T16:37:13;0.10;;;0.10;;
4186;SDS011;2107;52.306;10.484;2023-04-01T16:39:44;0.07;;;0.07;;
4186;SDS011;2107;52.306;10.484;2023-04-01T16:42:27;0.00;;;0.00;;
4186;SDS011;2107;52.306;10.484;2023-04-01T16:45:15;0.00;;;0.00;;
4186;SDS011;2107;52.306;10.484;2023-04-01T16:47:49;0.00;;;0.00;;
4186;SDS011;2107;52.306;10.484;2023-04-01T16:50:21;0.00;;;0.00;;
4186;SDS011;2107;52.306;10.484;2023-04-01T16:52:59;0.10;;;0.10;;
4186;SDS011;2107;52.306;10.484;2023-04-01T16:55:42;0.00;;;0.00;;
4186;SDS011;2107;52.306;10.484;2023-04-01T16:58:18;0.00;;;0.00;;
4186;SDS011;2107;52.306;10.484;2023-04-01T17:00:49;0.00;;;0.00;;
4186;SDS011;2107;52.306;10.484;2023-04-01T17:03:20;0.00;;;0.00;;
4186;SDS011;2107;52.306;10.484;2023-04-01T17:05:57;0.00;;;0.00;;
4186;SDS011;2107;52.306;10.484;2023-04-01T17:08:40;0.00;;;0.00;;
4186;SDS011;2107;52.306;10.484;2023-04-01T17:11:18;0.00;;;0.00;;
4186;SDS011;2107;52.306;10.484;2023-04-01T17:13:49;0.00;;;0.00;;
4186;SDS011;2107;52.306;10.484;2023-04-01T17:16:26;0.00;;;0.00;;
4186;SDS011;2107;52.306;10.484;2023-04-01T17:19:05;0.00;;;0.00;;
4186;SDS011;2107;52.306;10.484;2023-04-01T17:21:49;0.00;;;0.00;;
4186;SDS011;2107;52.306;10.484;2023-04-01T17:24:32;0.00;;;0.00;;
4186;SDS011;2107;52.306;10.484;2023-04-01T17:27:21;0.00;;;0.00;;
4186;SDS011;2107;52.306;10.484;2023-04-01T17:29:59;0.00;;;0.00;;
4186;SDS011;2107;52.306;10.484;2023-04-01T17:32:40;0.00;;;0.00;;
4186;SDS011;2107;52.306;10.484;2023-04-01T17:35:22;0.00;;;0.00;;